Time;durP1;ratioP1;P1;durP2;ratioP2;P2;SDS_P1;SDS_P2;PMS_P1;PMS_P2;Temp;Humidity;BMP_temperature;BMP_pressure;BME280_temperature;BME280_humidity;BME280_pressure;Samples;Min_cycle;Max_cycle;Signal;HPM_P1;HPM_P2
2021/07/08 00:01:53;;;;;;;9.97;5.33;;;;;;;27.25;51.43;101169.20;128360;1087;64119;-84
2021/07/08 00:04:33;;;;;;;9.00;5.10;;;;;;;27.25;51.51;101165.65;128345;1086;64307;-84
2021/07/08 00:07:09;;;;;;;9.13;5.60;;;;;;;27.26;51.40;101172.80;128364;1085;64101;-84
2021/07/08 00:09:48;;;;;;;9.20;5.27;;;;;;;27.26;51.35;101173.64;128410;1086;61643;-84
2021/07/08 00:12:24;;;;;;;8.50;4.70;;;;;;;27.25;51.58;101171.91;128358;1085;64141;-84
2021/07/08 00:15:11;;;;;;;8.10;5.33;;;;;;;27.26;51.39;101170.08;128312;1087;64205;-84
2021/07/08 00:18:02;;;;;;;;;;;;;;;;;;;;;
2021/07/08 00:20:51;;;;;;;;;;;;;;;;;;;;;
2021/07/08 00:23:25;;;;;;;7.70;5.50;;;;;;;27.25;51.33;101171.07;128371;1085;64131;-84
2021/07/08 00:26:14;;;;;;;9.00;5.37;;;;;;;27.25;51.30;101171.07;128375;1087;64120;-84
2021/07/08 00:29:08;;;;;;;7.10;5.13;;;;;;;27.24;51.31;101175.61;128355;1087;64164;-83
2021/07/08 00:31:34;;;;;;;8.33;5.13;;;;;;;27.25;51.25;101166.50;128354;1087;64147;-84
2021/07/08 00:34:04;;;;;;;8.57;5.43;;;;;;;27.25;51.44;101161.08;128386;1087;64156;-84
2021/07/08 00:36:34;;;;;;;9.27;5.40;;;;;;;27.25;51.17;101161.08;128357;1086;64111;-83
2021/07/08 00:39:23;;;;;;;7.67;5.20;;;;;;;27.25;51.51;101169.20;128388;1086;64276;-84
2021/07/08 00:41:52;;;;;;;7.97;5.30;;;;;;;27.24;51.24;101175.61;128337;1087;65377;-84
2021/07/08 00:44:39;;;;;;;7.97;5.10;;;;;;;27.24;51.42;101166.64;128328;1085;64198;-84
2021/07/08 00:47:22;;;;;;;8.05;5.20;;;;;;;27.24;51.23;101174.77;128386;1086;64176;-82
2021/07/08 00:49:52;;;;;;;8.17;5.07;;;;;;;27.24;51.40;101177.48;128399;1084;64134;-84
2021/07/08 00:53:05;;;;;;;8.17;5.23;;;;;;;27.24;51.30;101181.03;128354;1087;64079;-84
2021/07/08 00:55:31;;;;;;;8.53;5.20;;;;;;;27.24;51.51;101181.03;127869;1087;64268;-84
2021/07/08 00:58:19;;;;;;;7.97;5.40;;;;;;;27.24;51.20;101177.48;127912;1087;64237;-83
2021/07/08 01:00:48;;;;;;;6.63;5.20;;;;;;;27.23;51.35;101176.64;127928;1087;64144;-84
2021/07/08 01:03:35;;;;;;;8.00;5.50;;;;;;;27.24;51.25;101175.61;127878;1087;64334;-84
2021/07/08 01:06:19;;;;;;;9.87;5.43;;;;;;;27.24;51.26;101177.48;127900;1087;64121;-84
2021/07/08 01:09:09;;;;;;;7.37;5.17;;;;;;;27.23;51.24;101182.06;127922;1087;64246;-84
2021/07/08 01:11:38;;;;;;;8.63;5.27;;;;;;;27.23;51.20;101187.48;127904;1087;64130;-85
2021/07/08 01:14:07;;;;;;;6.93;5.10;;;;;;;27.23;51.30;101176.64;127898;1087;64143;-83
2021/07/08 01:16:43;;;;;;;10.47;5.67;;;;;;;27.24;51.10;101182.91;127869;1087;64201;-84
2021/07/08 01:19:14;;;;;;;8.63;5.30;;;;;;;27.22;51.16;101183.05;127890;1087;64130;-83
2021/07/08 01:21:49;;;;;;;;;;;;;;;27.23;51.37;101192.02;127964;1087;64284;-84
2021/07/08 01:24:37;;;;;;;;;;;;;;;;;;;;;
2021/07/08 01:27:15;;;;;;;8.50;5.40;;;;;;;27.21;51.30;101186.75;127901;1087;64346;-83
2021/07/08 01:29:41;;;;;;;;;;;;;;;27.20;51.35;101187.73;127916;1087;64089;-84
2021/07/08 01:32:17;;;;;;;8.40;5.17;;;;;;;27.19;51.33;101182.47;127937;1087;64224;-84
2021/07/08 01:34:51;;;;;;;8.57;4.97;;;;;;;27.20;51.54;101187.73;128392;1086;63917;-84
2021/07/08 01:37:26;;;;;;;7.63;5.00;;;;;;;27.20;51.33;101193.16;128333;1085;64224;-84
2021/07/08 01:39:53;;;;;;;10.13;5.57;;;;;;;27.20;51.46;101190.45;128351;1087;61678;-83
2021/07/08 01:42:19;;;;;;;9.63;5.40;;;;;;;27.21;51.33;101185.91;128407;1086;64114;-84
2021/07/08 01:45:07;;;;;;;9.90;5.77;;;;;;;27.20;51.18;101185.03;128381;1087;64144;-83
2021/07/08 01:47:38;;;;;;;8.60;5.40;;;;;;;27.20;51.31;101192.31;128369;1085;64131;-84
2021/07/08 01:50:38;;;;;;;8.37;5.70;;;;;;;27.20;51.23;101198.58;128343;1087;64240;-84
2021/07/08 01:53:13;;;;;;;8.23;5.40;;;;;;;27.19;51.29;101196.89;128369;1087;64150;-84
2021/07/08 01:55:40;;;;;;;9.90;5.63;;;;;;;27.20;51.22;101201.29;128373;1087;63910;-84
2021/07/08 01:58:06;;;;;;;7.27;5.10;;;;;;;27.21;51.37;101194.03;128361;1087;64365;-83
2021/07/08 02:00:51;;;;;;;8.20;5.53;;;;;;;27.21;51.45;101194.03;128385;1086;64899;-85
2021/07/08 02:03:41;;;;;;;10.37;5.60;;;;;;;27.20;51.27;101195.87;128388;1085;64048;-84
2021/07/08 02:06:08;;;;;;;9.20;5.40;;;;;;;27.20;51.23;101200.45;128369;1087;64157;-83
2021/07/08 02:08:43;;;;;;;7.13;5.10;;;;;;;27.20;51.23;101209.42;128361;1086;64096;-84
2021/07/08 02:11:40;;;;;;;9.27;5.43;;;;;;;27.19;51.26;101205.02;128367;1086;64162;-84
2021/07/08 02:14:16;;;;;;;7.45;5.40;;;;;;;27.21;51.22;101202.17;128362;1087;64131;-84
2021/07/08 02:16:45;;;;;;;9.65;5.88;;;;;;;27.20;51.20;101209.42;128352;1087;64108;-84
2021/07/08 02:19:17;;;;;;;7.87;5.70;;;;;;;27.20;51.16;101209.42;128383;1085;64335;-83
2021/07/08 02:21:47;;;;;;;7.87;5.20;;;;;;;27.21;51.35;101210.30;128349;1087;64191;-85
2021/07/08 02:24:24;;;;;;;9.27;5.53;;;;;;;27.19;51.22;101205.02;128392;1085;64279;-83
2021/07/08 02:26:53;;;;;;;7.05;5.20;;;;;;;27.20;51.57;101211.28;128381;1087;65095;-85
2021/07/08 02:29:39;;;;;;;9.27;5.57;;;;;;;27.19;51.00;101213.16;128381;1087;64147;-83
2021/07/08 02:32:15;;;;;;;9.80;5.20;;;;;;;27.20;51.17;101216.70;128361;1086;64477;-84
2021/07/08 02:34:48;;;;;;;8.85;5.80;;;;;;;27.19;51.01;101213.16;128401;1087;64154;-84
2021/07/08 02:37:32;;;;;;;8.50;5.30;;;;;;;27.20;51.22;101214.00;128336;1087;64163;-84
2021/07/08 02:40:08;;;;;;;7.50;5.10;;;;;;;27.19;51.31;101207.73;128352;1087;64138;-83
2021/07/08 02:42:47;;;;;;;9.20;5.13;;;;;;;27.19;51.17;101209.56;128343;1085;64191;-83
2021/07/08 02:45:14;;;;;;;9.40;5.90;;;;;;;27.20;50.90;101219.42;128358;1086;64131;-84
2021/07/08 02:47:44;;;;;;;12.63;5.67;;;;;;;27.19;51.29;101215.86;128363;1086;64940;-84
2021/07/08 02:50:15;;;;;;;8.97;5.03;;;;;;;27.19;50.79;101215.86;128366;1087;64138;-84
2021/07/08 02:52:51;;;;;;;8.57;5.03;;;;;;;27.19;51.12;101226.70;128403;1085;64291;-84
2021/07/08 02:55:29;;;;;;;8.10;5.27;;;;;;;27.19;51.13;101226.70;128390;1086;65372;-84
2021/07/08 02:58:09;;;;;;;9.08;4.90;;;;;;;27.19;51.18;101228.53;128402;1087;64073;-84
2021/07/08 03:00:47;;;;;;;6.67;5.13;;;;;;;27.19;51.19;101234.83;128392;1087;64288;-84
2021/07/08 03:03:14;;;;;;;;;;;;;;;27.18;51.26;101233.11;128393;1087;64130;-84
2021/07/08 03:05:50;;;;;;;7.20;5.23;;;;;;;27.17;51.07;101242.23;128393;1087;64204;-85
2021/07/08 03:08:45;;;;;;;6.80;5.20;;;;;;;27.18;50.95;101243.08;128383;1087;64282;-84
2021/07/08 03:11:23;;;;;;;7.43;5.20;;;;;;;27.18;51.11;101243.08;128372;1086;64099;-84
2021/07/08 03:13:55;;;;;;;7.20;5.13;;;;;;;27.18;51.11;101246.66;128356;1085;64603;-85
2021/07/08 03:16:36;;;;;;;8.97;5.30;;;;;;;27.19;51.39;101247.51;128366;1087;64219;-83
2021/07/08 03:19:29;;;;;;;9.97;5.40;;;;;;;27.19;50.93;101250.22;128392;1085;64144;-83
2021/07/08 03:21:55;;;;;;;8.33;5.17;;;;;;;27.18;50.96;101246.66;128370;1086;64153;-83
2021/07/08 03:24:34;;;;;;;6.13;5.10;;;;;;;27.19;51.17;101251.09;128370;1087;64300;-84
2021/07/08 03:27:04;;;;;;;10.10;5.10;;;;;;;27.19;50.75;101252.92;128416;1086;64278;-83
2021/07/08 03:29:39;;;;;;;8.55;5.30;;;;;;;27.19;51.28;101253.80;128351;1087;64014;-85
2021/07/08 03:32:15;;;;;;;7.07;5.10;;;;;;;27.19;50.96;101251.09;128372;1087;64617;-84
2021/07/08 03:35:03;;;;;;;;;;;;;;;;;;;;;
2021/07/08 03:37:33;;;;;;;8.67;5.57;;;;;;;27.19;51.18;101251.09;128413;1087;64140;-84
2021/07/08 03:40:04;;;;;;;7.07;5.53;;;;;;;27.20;50.77;101249.23;128369;1087;64890;-84
2021/07/08 03:42:38;;;;;;;8.43;5.70;;;;;;;27.20;51.05;101251.94;128318;1087;64137;-84
2021/07/08 03:45:06;;;;;;;8.70;5.60;;;;;;;27.20;50.96;101254.65;128355;1086;64236;-84
2021/07/08 03:47:52;;;;;;;7.70;5.30;;;;;;;27.19;51.06;101258.34;128393;1087;64218;-83
2021/07/08 03:50:19;;;;;;;7.43;5.00;;;;;;;27.19;51.17;101263.77;128361;1086;64128;-83
2021/07/08 03:53:02;;;;;;;8.03;5.40;;;;;;;27.19;50.96;101263.77;128368;1087;64157;-84
2021/07/08 03:55:48;;;;;;;8.13;5.80;;;;;;;27.19;50.85;101267.36;128370;1087;64374;-84
2021/07/08 03:58:40;;;;;;;;;;;;;;;;;;;;;
2021/07/08 04:01:17;;;;;;;7.03;5.10;;;;;;;27.17;51.22;101266.63;128385;1087;64102;-85
2021/07/08 04:03:54;;;;;;;7.10;5.30;;;;;;;27.18;51.14;101271.05;128353;1085;64169;-81
2021/07/08 04:06:30;;;;;;;6.53;5.20;;;;;;;27.18;51.00;101272.89;128358;1086;64162;-83
2021/07/08 04:09:16;;;;;;;7.93;5.43;;;;;;;27.18;51.02;101268.34;128360;1086;64023;-84
2021/07/08 04:11:57;;;;;;;10.23;5.47;;;;;;;27.18;51.07;101272.89;127971;1087;64207;-83
2021/07/08 04:14:34;;;;;;;7.17;5.27;;;;;;;27.18;51.02;101276.48;128350;1087;64217;-84
2021/07/08 04:17:06;;;;;;;6.53;5.00;;;;;;;27.19;50.95;101275.48;128373;1085;64141;-84
2021/07/08 04:20:05;;;;;;;;;;;;;;;;;;;;;
2021/07/08 04:22:40;;;;;;;8.40;5.10;;;;;;;27.19;51.08;101280.91;128344;1087;64629;-83
2021/07/08 04:25:21;;;;;;;7.97;5.17;;;;;;;27.20;51.05;101288.02;128348;1087;63729;-84
2021/07/08 04:28:10;;;;;;;6.77;5.47;;;;;;;27.21;50.96;101288.89;128345;1086;64451;-84
2021/07/08 04:30:44;;;;;;;6.23;5.27;;;;;;;27.22;50.99;101293.29;128377;1087;64042;-84
2021/07/08 04:33:10;;;;;;;9.30;5.07;;;;;;;27.21;51.07;101291.60;128344;1085;64242;-84
2021/07/08 04:35:59;;;;;;;6.93;5.33;;;;;;;27.22;50.94;101296.00;128333;1087;64626;-84
2021/07/08 04:38:26;;;;;;;6.77;5.07;;;;;;;27.22;51.09;101296.88;128351;1086;64178;-84
2021/07/08 04:41:20;;;;;;;7.40;5.23;;;;;;;27.23;50.98;101304.02;128362;1086;64250;-84
2021/07/08 04:43:47;;;;;;;8.70;5.40;;;;;;;27.24;50.92;101307.58;127848;1090;64400;-84
2021/07/08 04:46:16;;;;;;;7.03;5.33;;;;;;;27.24;51.06;101307.58;127861;1088;64169;-84
2021/07/08 04:48:48;;;;;;;6.50;5.07;;;;;;;27.25;50.94;101310.14;127900;1090;64885;-85
2021/07/08 04:51:15;;;;;;;7.50;5.43;;;;;;;27.25;51.09;101306.59;127888;1088;64130;-83
2021/07/08 04:53:52;;;;;;;6.60;5.33;;;;;;;27.27;50.89;101310.00;127884;1090;64192;-84
2021/07/08 04:56:28;;;;;;;9.97;5.70;;;;;;;27.27;50.98;101312.71;127895;1090;64086;-84
2021/07/08 04:58:55;;;;;;;8.40;5.90;;;;;;;27.27;50.98;101307.30;127890;1090;64381;-84
2021/07/08 05:01:41;;;;;;;8.60;5.80;;;;;;;27.28;50.86;101305.45;127933;1090;64311;-83
2021/07/08 05:04:07;;;;;;;10.77;6.77;;;;;;;27.28;51.11;101306.30;127914;1089;64278;-83
2021/07/08 05:06:34;;;;;;;9.47;6.53;;;;;;;27.29;51.03;101308.03;127873;1090;64215;-83
2021/07/08 05:09:19;;;;;;;8.47;6.37;;;;;;;27.29;50.78;101310.73;127915;1090;64145;-83
2021/07/08 05:11:49;;;;;;;7.43;5.90;;;;;;;27.29;50.81;101307.15;127929;1090;64247;-84
2021/07/08 05:14:27;;;;;;;6.13;5.53;;;;;;;27.31;50.71;101313.30;127985;1087;64246;-84
2021/07/08 05:16:56;;;;;;;8.83;5.40;;;;;;;27.30;51.05;101314.29;128351;1087;64134;-83
2021/07/08 05:19:23;;;;;;;8.23;5.87;;;;;;;27.31;50.96;101316.86;128391;1086;64156;-84
2021/07/08 05:21:53;;;;;;;8.13;5.80;;;;;;;27.33;50.79;101325.72;128363;1087;64287;-84
2021/07/08 05:24:25;;;;;;;7.70;5.60;;;;;;;27.34;50.98;101329.28;128411;1087;64217;-84
2021/07/08 05:27:11;;;;;;;;;;;;;;;;;;;;;
2021/07/08 05:30:01;;;;;;;9.60;5.63;;;;;;;27.35;51.00;101339.98;128358;1087;64262;-84
2021/07/08 05:32:35;;;;;;;8.78;6.20;;;;;;;27.36;50.73;101346.28;128381;1087;64139;-84
2021/07/08 05:35:03;;;;;;;6.80;4.93;;;;;;;27.37;50.80;101348.88;128023;1085;64530;-84
2021/07/08 05:37:48;;;;;;;6.80;5.70;;;;;;;27.38;50.61;101357.86;128334;1086;64304;-84
2021/07/08 05:40:15;;;;;;;8.67;5.80;;;;;;;27.38;50.87;101353.31;128379;1087;64153;-84
2021/07/08 05:42:41;;;;;;;9.47;5.83;;;;;;;27.39;50.71;101362.29;128257;1087;64568;-82
2021/07/08 05:45:23;;;;;;;8.43;5.60;;;;;;;27.39;50.72;101365.88;128281;1087;64114;-83
2021/07/08 05:48:02;;;;;;;6.60;5.53;;;;;;;27.40;50.83;101366.72;128243;1087;64898;-83
2021/07/08 05:50:29;;;;;;;6.50;5.80;;;;;;;27.41;50.54;101363.88;128251;1087;64233;-83
2021/07/08 05:53:05;;;;;;;7.60;5.77;;;;;;;27.42;50.69;101364.72;128336;1085;64131;-82
2021/07/08 05:55:35;;;;;;;8.73;5.67;;;;;;;27.44;50.89;101370.88;128309;1086;64140;-83
2021/07/08 05:58:13;;;;;;;7.93;5.80;;;;;;;27.44;50.80;101373.58;128340;1086;64160;-83
2021/07/08 06:00:48;;;;;;;9.00;6.07;;;;;;;27.45;50.71;101363.58;128342;1087;64160;-84
2021/07/08 06:03:25;;;;;;;6.70;5.97;;;;;;;27.45;50.68;101371.72;128376;1085;64034;-84
2021/07/08 06:05:52;;;;;;;8.37;5.90;;;;;;;27.45;50.63;101372.59;128375;1086;64150;-83
2021/07/08 06:08:18;;;;;;;8.13;5.80;;;;;;;27.48;50.74;101369.59;128245;1087;64073;-84
2021/07/08 06:11:01;;;;;;;;;;;;;;;;;;;;;
2021/07/08 06:13:37;;;;;;;8.07;5.87;;;;;;;27.49;50.79;101367.73;128354;1087;64160;-84
2021/07/08 06:16:03;;;;;;;8.17;6.17;;;;;;;27.49;50.63;101370.44;128312;1087;62668;-84
2021/07/08 06:18:30;;;;;;;8.83;6.30;;;;;;;27.51;50.73;101382.02;128343;1085;64246;-83
2021/07/08 06:20:59;;;;;;;7.37;5.97;;;;;;;27.51;50.63;101377.45;128309;1085;63990;-83
2021/07/08 06:23:25;;;;;;;9.80;6.50;;;;;;;27.50;50.61;101373.05;128369;1087;64102;-84
2021/07/08 06:25:57;;;;;;;8.60;6.13;;;;;;;27.51;50.46;101379.31;128339;1087;64099;-84
2021/07/08 06:28:31;;;;;;;8.37;6.23;;;;;;;27.50;50.67;101375.75;128333;1087;64139;-84
2021/07/08 06:31:01;;;;;;;8.43;6.40;;;;;;;27.50;50.77;101378.47;128362;1086;64218;-84
2021/07/08 06:33:45;;;;;;;7.90;6.30;;;;;;;27.49;50.71;101373.16;128334;1087;64099;-82
2021/07/08 06:36:21;;;;;;;8.43;6.33;;;;;;;27.49;50.52;101375.86;128346;1087;64126;-82
2021/07/08 06:38:52;;;;;;;7.73;6.40;;;;;;;27.48;50.73;101380.45;128321;1086;64131;-82
2021/07/08 06:41:21;;;;;;;8.70;6.27;;;;;;;27.48;50.73;101379.59;128336;1085;64176;-83
2021/07/08 06:43:57;;;;;;;7.47;5.40;;;;;;;27.46;50.52;101374.31;128377;1087;64253;-83
2021/07/08 06:46:28;;;;;;;9.23;6.07;;;;;;;27.47;50.79;101375.16;128343;1087;64256;-84
2021/07/08 06:48:57;;;;;;;7.50;5.90;;;;;;;27.46;50.52;101371.61;128331;1087;63031;-84
2021/07/08 06:51:30;;;;;;;6.10;5.50;;;;;;;27.48;50.25;101379.59;128379;1087;64111;-84
2021/07/08 06:54:02;;;;;;;8.57;5.70;;;;;;;27.46;50.49;101374.31;128399;1087;64047;-83
2021/07/08 06:56:28;;;;;;;7.20;5.70;;;;;;;27.47;50.52;101373.30;128360;1087;65224;-82
2021/07/08 06:59:00;;;;;;;;;;;;;;;27.47;50.59;101369.73;128413;1085;64150;-83
2021/07/08 07:01:50;;;;;;;9.43;5.63;;;;;;;27.47;50.47;101388.72;128342;1087;64134;-83
2021/07/08 07:04:23;;;;;;;8.93;5.20;;;;;;;27.45;50.28;101382.56;128380;1087;64135;-83
2021/07/08 07:06:52;;;;;;;8.70;5.73;;;;;;;27.45;50.51;101382.56;128353;1085;64275;-83
2021/07/08 07:09:22;;;;;;;7.47;5.50;;;;;;;27.45;50.51;101385.27;128383;1086;64169;-83
2021/07/08 07:11:54;;;;;;;7.63;5.37;;;;;;;27.47;50.47;101383.30;128340;1087;64162;-84
2021/07/08 07:14:29;;;;;;;6.40;4.83;;;;;;;27.46;50.72;101379.74;128357;1086;64208;-83
2021/07/08 07:16:56;;;;;;;7.80;4.47;;;;;;;27.47;50.26;101384.14;128276;1087;65272;-84
2021/07/08 07:19:22;;;;;;;6.03;4.93;;;;;;;27.47;50.47;101378.72;128209;1085;64160;-83
2021/07/08 07:21:48;;;;;;;6.07;4.97;;;;;;;27.48;50.37;101385.87;128230;1087;64393;-83
2021/07/08 07:24:15;;;;;;;6.83;4.90;;;;;;;27.49;50.33;101387.59;128261;1087;64236;-83
2021/07/08 07:26:41;;;;;;;5.30;4.30;;;;;;;27.50;50.08;101396.57;128257;1086;64643;-83
2021/07/08 07:29:08;;;;;;;7.33;5.00;;;;;;;27.49;50.50;101398.44;128260;1085;64201;-83
2021/07/08 07:31:34;;;;;;;7.10;4.80;;;;;;;27.49;50.27;101390.30;128222;1086;64314;-83
2021/07/08 07:34:15;;;;;;;5.93;4.30;;;;;;;27.51;50.06;101392.87;128360;1087;64182;-84
2021/07/08 07:36:44;;;;;;;8.47;4.83;;;;;;;27.50;50.17;101396.57;128381;1087;64163;-83
2021/07/08 07:39:13;;;;;;;6.67;4.67;;;;;;;27.49;50.15;101392.14;128333;1087;64285;-85
2021/07/08 07:42:00;;;;;;;5.97;4.80;;;;;;;27.48;50.40;101388.58;128368;1086;64104;-84
2021/07/08 07:44:26;;;;;;;8.10;4.10;;;;;;;27.48;50.16;101390.44;127915;1090;64178;-84
2021/07/08 07:47:21;;;;;;;7.13;4.53;;;;;;;27.47;50.07;101386.01;127895;1090;62167;-84
2021/07/08 07:50:00;;;;;;;6.73;4.43;;;;;;;27.48;50.37;101380.45;127706;1090;64598;-84
2021/07/08 07:52:29;;;;;;;4.93;4.13;;;;;;;27.49;50.25;101384.00;127687;1090;64118;-80
2021/07/08 07:55:06;;;;;;;6.83;4.10;;;;;;;27.50;50.12;101388.44;127753;1090;64258;-84
2021/07/08 07:57:33;;;;;;;5.80;4.30;;;;;;;27.49;50.11;101398.44;127607;1091;64232;-84
2021/07/08 08:00:00;;;;;;;5.35;4.20;;;;;;;27.50;50.26;101400.16;127677;1093;64351;-84
2021/07/08 08:02:38;;;;;;;5.33;4.67;;;;;;;27.51;50.29;101404.56;127622;1093;64264;-83
2021/07/08 08:05:19;;;;;;;7.95;5.20;;;;;;;27.51;50.22;101395.58;127706;1092;64265;-84
2021/07/08 08:10:34;;;;;;;6.25;4.50;;;;;;;27.48;50.30;101396.71;127353;1093;64157;-81
2021/07/08 08:13:01;;;;;;;6.27;4.10;;;;;;;27.51;50.32;101401.00;127220;1092;64181;-81
2021/07/08 08:15:27;;;;;;;5.80;4.33;;;;;;;27.51;49.42;101401.00;127498;1091;64169;-81
2021/07/08 08:17:54;;;;;;;6.00;4.40;;;;;;;27.51;49.96;101398.30;127251;1092;64259;-82
2021/07/08 08:20:24;;;;;;;5.57;4.20;;;;;;;27.53;50.31;101407.16;127476;1092;64230;-82
2021/07/08 08:22:50;;;;;;;5.97;4.50;;;;;;;27.53;50.08;101397.16;127551;1093;64372;-82
2021/07/08 08:25:16;;;;;;;7.10;4.63;;;;;;;27.54;50.12;101398.00;127273;1092;64155;-81
2021/07/08 08:27:43;;;;;;;5.43;4.10;;;;;;;27.55;50.24;101395.16;127500;1090;64227;-82
2021/07/08 08:30:12;;;;;;;6.73;4.37;;;;;;;27.54;50.34;101393.46;127651;1090;64216;-84
2021/07/08 08:32:43;;;;;;;6.37;4.40;;;;;;;27.55;49.86;101399.73;127665;1089;64206;-84
2021/07/08 08:35:10;;;;;;;5.90;4.30;;;;;;;27.56;49.78;101406.88;127734;1090;64149;-84
2021/07/08 08:37:37;;;;;;;5.60;4.13;;;;;;;27.55;49.87;101402.44;127859;1090;64412;-82
2021/07/08 08:40:34;;;;;;;5.73;4.27;;;;;;;27.55;50.13;101416.00;127847;1089;64368;-83
2021/07/08 08:43:00;;;;;;;7.80;4.80;;;;;;;27.56;49.94;101409.59;127911;1090;64144;-84
2021/07/08 08:45:28;;;;;;;5.87;4.67;;;;;;;27.54;50.08;101420.58;127925;1090;64393;-83
2021/07/08 08:48:03;;;;;;;6.80;4.73;;;;;;;27.54;50.15;101422.41;127916;1090;64103;-83
2021/07/08 08:50:40;;;;;;;5.33;4.23;;;;;;;27.54;49.95;101412.44;127880;1090;64141;-84
2021/07/08 08:53:07;;;;;;;9.63;5.00;;;;;;;27.52;49.85;101414.42;127797;1088;64147;-83
2021/07/08 08:55:45;;;;;;;11.70;4.60;;;;;;;27.50;49.66;101404.70;127842;1090;64224;-84
2021/07/08 08:58:20;;;;;;;7.23;4.10;;;;;;;27.47;49.75;101413.13;127902;1089;61817;-84
2021/07/08 09:00:49;;;;;;;5.17;3.90;;;;;;;27.41;49.36;101415.38;128246;1090;64281;-82
2021/07/08 09:03:29;;;;;;;8.35;4.20;;;;;;;27.40;49.30;101413.66;127619;1089;64152;-82
2021/07/08 09:06:07;;;;;;;6.57;3.87;;;;;;;27.38;49.48;101414.79;127893;1090;64127;-83
2021/07/08 09:08:39;;;;;;;6.70;4.20;;;;;;;27.39;49.55;101417.39;127906;1090;64600;-83
2021/07/08 09:11:28;;;;;;;7.10;4.47;;;;;;;27.39;49.62;101425.52;127847;1090;64153;-83
2021/07/08 09:14:03;;;;;;;8.05;4.60;;;;;;;27.41;49.49;101414.53;127882;1090;64279;-84
2021/07/08 09:16:43;;;;;;;5.30;4.37;;;;;;;27.42;49.61;101414.39;127887;1090;64156;-83
2021/07/08 09:19:37;;;;;;;6.20;4.23;;;;;;;27.44;49.66;101411.55;127888;1090;64137;-84
2021/07/08 09:22:12;;;;;;;;;;;;;;;;;;;;;
2021/07/08 09:24:39;;;;;;;5.50;4.43;;;;;;;27.47;49.66;101410.41;127887;1088;64115;-83
2021/07/08 09:27:54;;;;;;;;;;;;;;;;;;;;;
2021/07/08 09:30:59;;;;;;;7.03;4.53;;;;;;;27.48;49.80;101412.14;127873;1089;64140;-83
2021/07/08 09:33:45;;;;;;;6.08;4.55;;;;;;;27.49;49.81;101409.28;127652;1090;64152;-84
2021/07/08 09:36:34;;;;;;;7.53;4.50;;;;;;;27.50;49.75;101404.70;127706;1090;64117;-83
2021/07/08 09:39:44;;;;;;;5.57;4.33;;;;;;;27.50;49.68;101402.88;127685;1090;64147;-83
2021/07/08 09:42:31;;;;;;;5.87;4.13;;;;;;;27.51;49.74;101404.56;127269;1093;64157;-83
2021/07/08 09:45:28;;;;;;;6.20;4.20;;;;;;;27.51;49.51;101411.84;127249;1097;65681;-83
2021/07/08 09:48:33;;;;;;;5.07;4.13;;;;;;;27.53;49.47;101412.58;127261;1095;64115;-84
2021/07/08 09:51:18;;;;;;;;;;;;;;;;;;;;;
2021/07/08 09:53:52;;;;;;;5.53;4.30;;;;;;;27.53;49.69;101415.30;127213;1095;64001;-83
2021/07/08 09:59:21;;;;;;;5.00;3.80;;;;;;;27.53;49.36;101399.88;127178;1095;64616;-84
2021/07/08 10:02:17;;;;;;;;;;;;;;;;;;;;;
2021/07/08 10:05:13;;;;;;;7.35;4.30;;;;;;;27.54;49.57;101400.72;127120;1100;64155;-83
2021/07/08 10:07:58;;;;;;;7.00;4.30;;;;;;;27.54;49.63;101408.85;127124;1100;64304;-83
2021/07/08 10:10:34;;;;;;;7.20;4.30;;;;;;;27.53;49.43;101396.31;126574;1096;64104;-82
2021/07/08 10:13:00;;;;;;;6.07;4.63;;;;;;;27.54;49.42;101395.30;127061;1097;64163;-83
2021/07/08 10:15:27;;;;;;;5.83;4.33;;;;;;;27.55;49.43;101394.30;127156;1095;64429;-83
2021/07/08 10:18:06;;;;;;;5.20;4.20;;;;;;;27.53;49.64;101389.02;127141;1097;64160;-83
2021/07/08 10:20:33;;;;;;;9.35;4.60;;;;;;;27.54;49.49;101389.88;127032;1096;63977;-83
2021/07/08 10:23:11;;;;;;;6.83;4.20;;;;;;;27.53;49.36;101371.91;127173;1096;66347;-83
2021/07/08 10:25:41;;;;;;;5.63;4.40;;;;;;;27.53;49.17;101378.18;127144;1096;64144;-83
2021/07/08 10:28:07;;;;;;;7.67;4.00;;;;;;;27.54;49.39;101374.48;127153;1095;64358;-82
2021/07/08 10:30:34;;;;;;;5.90;4.57;;;;;;;27.54;49.51;101371.77;127164;1095;64326;-82
2021/07/08 10:33:00;;;;;;;6.03;4.13;;;;;;;27.55;49.42;101375.33;127165;1096;64186;-83
2021/07/08 10:35:40;;;;;;;6.60;4.47;;;;;;;27.54;48.98;101368.17;127201;1095;64298;-82
2021/07/08 10:38:48;;;;;;;5.00;3.85;;;;;;;27.55;49.23;101367.19;127141;1095;66178;-83
2021/07/08 10:41:40;;;;;;;6.33;4.10;;;;;;;27.55;49.42;101361.77;127804;1090;64163;-82
2021/07/08 10:44:33;;;;;;;5.83;4.17;;;;;;;27.55;49.30;101356.34;127646;1090;64163;-82
2021/07/08 10:47:35;;;;;;;;;;;;;;;;;;;;;
2021/07/08 10:50:50;;;;;;;6.43;4.20;;;;;;;27.54;49.21;101358.20;127644;1090;64138;-82
2021/07/08 10:53:42;;;;;;;8.53;6.27;;;;;;;27.54;48.98;101366.34;127564;1092;64140;-82
2021/07/08 10:56:12;;;;;;;6.13;4.00;;;;;;;27.55;48.86;101373.45;127649;1092;64138;-83
2021/07/08 10:58:45;;;;;;;6.63;4.33;;;;;;;27.55;49.03;101373.45;127623;1093;64316;-83
2021/07/08 11:01:38;;;;;;;5.77;4.57;;;;;;;27.55;48.95;101369.90;127641;1093;64159;-83
2021/07/08 11:04:04;;;;;;;6.40;4.77;;;;;;;27.55;48.93;101359.90;127580;1091;64252;-83
2021/07/08 11:06:47;;;;;;;7.70;4.95;;;;;;;27.55;48.91;101349.05;127630;1093;64317;-83
2021/07/08 11:09:33;;;;;;;6.73;4.87;;;;;;;27.56;48.71;101355.35;127654;1093;64157;-83
2021/07/08 11:12:03;;;;;;;7.60;4.93;;;;;;;27.55;49.10;101351.77;127228;1093;64147;-84
2021/07/08 11:14:42;;;;;;;7.73;4.83;;;;;;;27.56;48.90;101361.63;127231;1093;64147;-83
2021/07/08 11:17:14;;;;;;;6.67;5.17;;;;;;;27.57;49.01;101359.78;127251;1093;64127;-84
2021/07/08 11:20:11;;;;;;;;;;;;;;;;;;;;;
2021/07/08 11:22:37;;;;;;;7.80;5.60;;;;;;;27.55;48.46;101353.63;127514;1093;64317;-82
2021/07/08 11:25:05;;;;;;;7.13;5.63;;;;;;;27.55;48.74;101357.19;127652;1088;64483;-83
2021/07/08 11:27:44;;;;;;;6.53;5.33;;;;;;;27.56;48.77;101349.93;127656;1090;64259;-83
2021/07/08 11:30:24;;;;;;;8.95;5.70;;;;;;;27.56;49.06;101352.64;127595;1090;64144;-82
2021/07/08 11:32:59;;;;;;;8.97;5.77;;;;;;;27.56;48.52;101339.08;127641;1090;64278;-82
2021/07/08 11:35:55;;;;;;;7.00;5.80;;;;;;;27.56;49.00;101339.92;127633;1090;64183;-83
2021/07/08 11:38:24;;;;;;;7.13;6.10;;;;;;;27.57;48.55;101338.09;127646;1090;64297;-82
2021/07/08 11:41:10;;;;;;;7.17;5.40;;;;;;;27.57;48.48;101351.66;127645;1090;63964;-82
2021/07/08 11:43:37;;;;;;;8.57;5.67;;;;;;;27.57;48.73;101352.50;127644;1090;64166;-83
2021/07/08 11:46:11;;;;;;;6.83;5.20;;;;;;;27.58;48.85;101350.63;127613;1090;64298;-83
2021/07/08 11:48:43;;;;;;;6.27;5.27;;;;;;;27.57;48.69;101343.52;127597;1090;64157;-82
2021/07/08 11:51:20;;;;;;;6.50;5.27;;;;;;;27.58;48.61;101350.63;128055;1090;61888;-82
2021/07/08 11:53:47;;;;;;;8.07;5.73;;;;;;;27.57;48.60;101352.50;127718;1090;64144;-82
2021/07/08 11:56:17;;;;;;;7.90;5.77;;;;;;;27.58;48.86;101350.63;127764;1090;64218;-82
2021/07/08 11:58:44;;;;;;;7.57;5.07;;;;;;;27.57;48.43;101346.23;127999;1089;64124;-83
2021/07/08 12:01:12;;;;;;;7.43;5.40;;;;;;;27.58;48.55;101346.08;127837;1089;64243;-82
2021/07/08 12:03:56;;;;;;;7.45;5.50;;;;;;;27.58;48.54;101356.93;127836;1090;64674;-83
2021/07/08 12:06:25;;;;;;;7.40;5.23;;;;;;;27.58;48.65;101356.93;127879;1090;64094;-83
2021/07/08 12:09:20;;;;;;;6.20;5.20;;;;;;;27.59;48.68;101355.06;127932;1090;64207;-83
2021/07/08 12:11:51;;;;;;;6.93;5.20;;;;;;;27.59;48.67;101361.36;127849;1090;63994;-83
2021/07/08 12:14:19;;;;;;;6.50;4.80;;;;;;;27.58;48.30;101362.36;127765;1089;64105;-83
2021/07/08 12:16:46;;;;;;;5.90;4.93;;;;;;;27.59;48.53;101352.35;128164;1088;64246;-83
2021/07/08 12:19:27;;;;;;;6.63;5.03;;;;;;;27.59;48.45;101350.52;127797;1088;64239;-84
2021/07/08 12:21:55;;;;;;;6.20;5.27;;;;;;;27.59;48.42;101350.52;127858;1088;64106;-82
2021/07/08 12:24:37;;;;;;;7.43;5.10;;;;;;;27.59;48.57;101347.80;128621;1088;62791;-82
2021/07/08 12:27:05;;;;;;;8.63;5.30;;;;;;;27.60;48.29;101351.36;127824;1090;64658;-82